Time;durP1;ratioP1;P1;durP2;ratioP2;P2;SDS_P1;SDS_P2;PMS_P1;PMS_P2;Temp;Humidity;BMP_temperature;BMP_pressure;BME280_temperature;BME280_humidity;BME280_pressure;Samples;Min_cycle;Max_cycle;Signal;HPM_P1;HPM_P2
2022/11/02 00:02:12;;;;;;;9.07;2.70;;;12.30;96.80;;;;;;5020611;28;20070;-72
2022/11/02 00:04:38;;;;;;;13.02;2.63;;;12.30;96.90;;;;;;5024117;28;20038;-73
2022/11/02 00:07:04;;;;;;;10.02;1.80;;;12.30;96.90;;;;;;5008147;28;20050;-71
2022/11/02 00:09:29;;;;;;;9.70;1.65;;;12.20;97.00;;;;;;4992376;28;20614;-73
2022/11/02 00:11:55;;;;;;;9.27;1.92;;;12.20;97.00;;;;;;5010206;28;20076;-72
2022/11/02 00:14:21;;;;;;;10.82;2.03;;;12.30;97.00;;;;;;5010524;28;20108;-72
2022/11/02 00:16:47;;;;;;;8.63;1.65;;;12.20;97.10;;;;;;5019967;28;20050;-72
2022/11/02 00:19:12;;;;;;;11.90;1.65;;;12.20;97.10;;;;;;4993576;28;20103;-73
2022/11/02 00:21:38;;;;;;;8.38;1.70;;;12.20;97.20;;;;;;5009336;28;20050;-72
2022/11/02 00:24:04;;;;;;;14.30;2.40;;;12.10;97.40;;;;;;5005517;28;20066;-72
2022/11/02 00:26:30;;;;;;;8.27;2.10;;;12.20;97.40;;;;;;5026453;28;20045;-72
2022/11/02 00:28:56;;;;;;;9.68;2.08;;;12.20;97.40;;;;;;5010460;28;20107;-72
2022/11/02 00:31:25;;;;;;;11.93;1.92;;;12.20;97.50;;;;;;5008434;28;20042;-73
2022/11/02 00:33:51;;;;;;;10.00;1.90;;;12.20;97.40;;;;;;5022939;28;20534;-75
2022/11/02 00:36:16;;;;;;;9.68;1.83;;;12.20;97.70;;;;;;5025634;28;20052;-74
2022/11/02 00:38:42;;;;;;;13.88;2.47;;;12.20;97.60;;;;;;5018867;28;20050;-72
2022/11/02 00:41:08;;;;;;;10.98;2.33;;;12.10;97.70;;;;;;4993702;28;20052;-72
2022/11/02 00:43:35;;;;;;;10.45;2.88;;;12.10;97.70;;;;;;4990093;28;20093;-72
2022/11/02 00:46:00;;;;;;;11.90;2.10;;;12.10;97.60;;;;;;4987154;28;20046;-73
2022/11/02 00:48:26;;;;;;;11.73;2.25;;;12.10;97.80;;;;;;5039974;28;20049;-73
2022/11/02 00:50:52;;;;;;;15.10;2.53;;;12.10;97.80;;;;;;5012251;28;20056;-72
2022/11/02 00:53:17;;;;;;;5.70;1.63;;;12.10;97.70;;;;;;5009641;28;20054;-72
2022/11/02 00:55:43;;;;;;;17.63;2.03;;;12.10;97.80;;;;;;5009231;28;20116;-72
2022/11/02 00:58:09;;;;;;;7.00;1.80;;;12.10;97.90;;;;;;5010010;28;20481;-72
2022/11/02 01:00:35;;;;;;;12.02;1.88;;;12.20;97.90;;;;;;4993112;28;20118;-72
2022/11/02 01:03:01;;;;;;;12.02;2.45;;;12.10;97.90;;;;;;5021630;28;20056;-73
2022/11/02 01:05:27;;;;;;;12.10;2.10;;;12.10;98.00;;;;;;5009171;28;20056;-72
2022/11/02 01:07:52;;;;;;;8.68;2.22;;;12.10;98.10;;;;;;5007913;28;20045;-73
2022/11/02 01:10:18;;;;;;;9.90;2.05;;;12.10;98.00;;;;;;5009818;28;20103;-73
2022/11/02 01:12:44;;;;;;;8.88;1.77;;;12.10;98.10;;;;;;5013355;28;20050;-74
2022/11/02 01:15:10;;;;;;;11.32;1.73;;;12.10;98.10;;;;;;5006611;28;20053;-72
2022/11/02 01:17:36;;;;;;;5.88;1.35;;;12.10;98.30;;;;;;4997250;28;20045;-72
2022/11/02 01:20:02;;;;;;;11.75;2.08;;;12.10;98.20;;;;;;5008723;28;20104;-73
2022/11/02 01:22:28;;;;;;;10.25;2.00;;;12.10;98.30;;;;;;5009041;28;20112;-73
2022/11/02 01:24:54;;;;;;;14.65;2.72;;;12.10;98.30;;;;;;4987966;28;20049;-72
2022/11/02 01:27:20;;;;;;;14.02;2.08;;;12.10;98.30;;;;;;5025731;28;20056;-72
2022/11/02 01:29:45;;;;;;;11.05;2.42;;;12.10;98.40;;;;;;5009386;28;20050;-73
2022/11/02 01:32:11;;;;;;;13.35;2.53;;;12.00;98.80;;;;;;4992038;28;20178;-71
2022/11/02 01:34:38;;;;;;;11.35;1.98;;;12.00;98.80;;;;;;4976557;28;20056;-72
2022/11/02 01:37:04;;;;;;;12.68;2.58;;;12.10;98.50;;;;;;4976125;28;20081;-73
2022/11/02 01:39:30;;;;;;;11.90;1.90;;;12.10;98.80;;;;;;5004266;28;20064;-72
2022/11/02 01:41:56;;;;;;;9.90;1.80;;;12.10;98.70;;;;;;4992693;28;20383;-73
2022/11/02 01:44:27;;;;;;;15.77;2.83;;;12.10;98.70;;;;;;4991946;28;20129;-73
2022/11/02 01:47:16;;;;;;;11.23;2.28;;;12.10;98.70;;;;;;5008823;28;20046;-73
2022/11/02 01:49:43;;;;;;;8.75;2.22;;;12.10;98.70;;;;;;5005258;28;20131;-74
2022/11/02 01:52:18;;;;;;;9.68;1.98;;;12.10;98.70;;;;;;5008184;28;20049;-73
2022/11/02 01:55:05;;;;;;;10.10;1.80;;;12.10;98.70;;;;;;5009396;28;20049;-72
2022/11/02 01:57:31;;;;;;;12.63;2.35;;;12.10;98.70;;;;;;5021710;28;20447;-72
2022/11/02 02:00:12;;;;;;;14.48;2.28;;;12.10;98.80;;;;;;5008867;28;20048;-72
2022/11/02 02:02:46;;;;;;;11.40;2.10;;;12.10;98.70;;;;;;5008875;28;20053;-73
2022/11/02 02:05:12;;;;;;;13.52;2.35;;;12.10;98.60;;;;;;5019170;28;20093;-73
2022/11/02 02:07:38;;;;;;;14.05;2.20;;;12.10;98.80;;;;;;5006546;28;20041;-73
2022/11/02 02:10:04;;;;;;;14.25;2.58;;;12.10;98.60;;;;;;5008972;28;20065;-73
2022/11/02 02:12:30;;;;;;;11.70;1.80;;;12.10;98.70;;;;;;4992712;28;20045;-73
2022/11/02 02:14:56;;;;;;;13.68;2.03;;;12.10;98.80;;;;;;4991820;28;20107;-73
2022/11/02 02:17:39;;;;;;;11.93;2.25;;;12.20;98.80;;;;;;4975426;28;20492;-73
2022/11/02 02:20:42;;;;;;;13.20;2.13;;;12.20;98.90;;;;;;5008574;28;20069;-73
2022/11/02 02:23:46;;;;;;;12.05;1.92;;;12.20;98.70;;;;;;5007091;28;20042;-73
2022/11/02 02:26:23;;;;;;;14.20;2.45;;;12.20;98.80;;;;;;5037045;28;20048;-73
2022/11/02 02:29:12;;;;;;;9.68;2.00;;;12.20;98.80;;;;;;5008505;28;20053;-73
2022/11/02 02:32:05;;;;;;;14.60;2.17;;;12.20;98.70;;;;;;5011700;28;20133;-72
2022/11/02 02:34:52;;;;;;;17.27;2.75;;;12.10;98.80;;;;;;5008486;28;20768;-72
2022/11/02 02:37:44;;;;;;;11.25;1.98;;;12.10;98.90;;;;;;5008130;28;20058;-72
2022/11/02 02:40:11;;;;;;;20.58;2.38;;;12.10;99.10;;;;;;5004097;28;20042;-71
2022/11/02 02:42:47;;;;;;;7.93;2.00;;;12.10;99.20;;;;;;5007817;28;20046;-74
2022/11/02 02:45:32;;;;;;;12.57;2.10;;;12.10;99.20;;;;;;5008386;28;20112;-73
2022/11/02 02:48:05;;;;;;;9.52;2.08;;;12.10;99.30;;;;;;5007501;28;20048;-73
2022/11/02 02:50:39;;;;;;;10.77;1.83;;;12.10;99.30;;;;;;5040384;28;20802;-73
2022/11/02 02:53:06;;;;;;;11.23;2.10;;;12.10;99.20;;;;;;4990765;28;20056;-73
2022/11/02 02:55:33;;;;;;;13.90;2.63;;;12.10;99.30;;;;;;5008391;28;20121;-73
2022/11/02 02:58:00;;;;;;;10.35;2.00;;;12.10;99.20;;;;;;5011428;28;20053;-72
2022/11/02 03:00:25;;;;;;;10.85;1.77;;;12.20;99.20;;;;;;4994500;28;20119;-72
2022/11/02 03:03:00;;;;;;;13.10;2.20;;;12.20;99.30;;;;;;5010707;28;20078;-72
2022/11/02 03:05:34;;;;;;;9.82;1.77;;;12.20;99.30;;;;;;4993229;28;20515;-73
2022/11/02 03:08:11;;;;;;;11.57;1.90;;;12.20;99.30;;;;;;5011082;28;20046;-72
2022/11/02 03:10:46;;;;;;;11.52;2.17;;;12.20;99.10;;;;;;5010345;28;20349;-72
2022/11/02 03:13:27;;;;;;;13.65;2.30;;;12.30;99.20;;;;;;4994839;28;20284;-74
2022/11/02 03:16:12;;;;;;;14.57;2.13;;;12.30;99.30;;;;;;5011504;28;20157;-73
2022/11/02 03:18:48;;;;;;;10.35;1.85;;;12.30;99.40;;;;;;5009910;28;20050;-73
2022/11/02 03:21:37;;;;;;;15.15;2.42;;;12.30;99.30;;;;;;5025451;28;20089;-72
2022/11/02 03:24:19;;;;;;;12.00;1.92;;;12.30;99.20;;;;;;4984445;28;20046;-74
2022/11/02 03:27:09;;;;;;;11.73;2.00;;;12.30;99.10;;;;;;5009561;28;20053;-72
2022/11/02 03:29:47;;;;;;;9.07;1.85;;;12.40;99.10;;;;;;5038501;28;20041;-73
2022/11/02 03:32:22;;;;;;;9.80;1.80;;;12.30;99.20;;;;;;4992459;28;20050;-74
2022/11/02 03:34:53;;;;;;;10.57;2.80;;;12.30;99.20;;;;;;5015556;28;20826;-72
2022/11/02 03:37:29;;;;;;;13.65;2.33;;;12.40;99.20;;;;;;5010275;28;20065;-73
2022/11/02 03:39:57;;;;;;;14.35;2.38;;;12.40;99.20;;;;;;4995450;28;20065;-73
2022/11/02 03:42:26;;;;;;;14.93;2.75;;;12.40;99.10;;;;;;5023800;28;20046;-73
2022/11/02 03:45:22;;;;;;;12.48;2.15;;;12.50;99.10;;;;;;5043211;28;20081;-73
2022/11/02 03:47:51;;;;;;;11.02;2.35;;;12.50;99.00;;;;;;5016438;28;20040;-74
2022/11/02 03:50:19;;;;;;;16.02;2.97;;;12.50;99.00;;;;;;5011520;28;20509;-74
2022/11/02 03:52:45;;;;;;;9.52;2.10;;;12.50;98.90;;;;;;5010499;28;20041;-74
2022/11/02 03:55:19;;;;;;;12.05;2.50;;;12.60;98.90;;;;;;5024298;28;20049;-73
2022/11/02 03:57:50;;;;;;;14.32;2.72;;;12.60;99.00;;;;;;5010623;28;20084;-72
2022/11/02 04:00:17;;;;;;;16.30;2.55;;;12.60;98.80;;;;;;4976730;28;20037;-73
2022/11/02 04:02:51;;;;;;;11.38;1.98;;;12.60;98.90;;;;;;5022661;28;20072;-71
2022/11/02 04:05:16;;;;;;;11.35;2.00;;;12.60;98.90;;;;;;5008685;28;20046;-73
2022/11/02 04:10:28;;;;;;;12.95;2.22;;;12.60;98.90;;;;;;5003907;28;20061;-73
2022/11/02 04:15:38;;;;;;;11.88;1.77;;;12.60;99.20;;;;;;5005913;28;20092;-72
2022/11/02 04:20:49;;;;;;;9.23;2.33;;;12.70;99.00;;;;;;5009243;28;20045;-73
2022/11/02 04:26:00;;;;;;;13.52;2.83;;;12.70;99.10;;;;;;5020613;28;20130;-74
2022/11/02 04:28:25;;;;;;;15.43;3.17;;;12.70;99.10;;;;;;5035876;28;20542;-74
2022/11/02 04:30:51;;;;;;;16.27;4.10;;;12.70;99.20;;;;;;4994098;28;20049;-73
2022/11/02 04:33:32;;;;;;;16.15;4.38;;;12.60;99.10;;;;;;4987972;28;20042;-74
2022/11/02 04:36:01;;;;;;;19.90;5.25;;;12.70;99.20;;;;;;5020801;28;20372;-74
2022/11/02 04:38:39;;;;;;;20.48;4.40;;;12.60;99.30;;;;;;4992808;28;20049;-73
2022/11/02 04:43:50;;;;;;;12.85;3.42;;;12.60;99.30;;;;;;5011244;28;20128;-72
2022/11/02 04:46:16;;;;;;;14.35;3.03;;;12.60;99.40;;;;;;5009789;28;20187;-72
2022/11/02 04:48:42;;;;;;;17.00;3.55;;;12.60;99.30;;;;;;5010251;28;20136;-73
2022/11/02 04:51:08;;;;;;;12.93;2.70;;;12.60;99.40;;;;;;4994180;28;20052;-73
2022/11/02 04:53:34;;;;;;;9.57;2.15;;;12.60;99.40;;;;;;5009768;28;20054;-73
2022/11/02 04:56:01;;;;;;;14.82;2.50;;;12.60;99.30;;;;;;5006452;28;20081;-72
2022/11/02 04:58:27;;;;;;;15.18;3.22;;;12.60;99.40;;;;;;5009511;28;20046;-72
2022/11/02 05:00:53;;;;;;;11.73;2.13;;;12.60;99.60;;;;;;5018067;28;20057;-72
2022/11/02 05:03:18;;;;;;;10.00;2.00;;;12.60;99.70;;;;;;5008750;28;20774;-73
2022/11/02 05:05:44;;;;;;;15.25;2.35;;;12.60;99.50;;;;;;5010003;28;20046;-72
2022/11/02 05:08:10;;;;;;;11.93;2.33;;;12.60;99.50;;;;;;5009088;28;20066;-73
2022/11/02 05:10:35;;;;;;;12.65;2.22;;;12.60;99.50;;;;;;5007395;28;20136;-72
2022/11/02 05:13:01;;;;;;;8.32;1.83;;;12.50;99.70;;;;;;4993442;28;20817;-73
2022/11/02 05:15:27;;;;;;;15.38;2.45;;;12.50;99.90;;;;;;5009538;28;20050;-73
2022/11/02 05:17:53;;;;;;;14.07;2.75;;;12.50;99.80;;;;;;4992459;28;20061;-74
2022/11/02 05:20:19;;;;;;;14.60;2.83;;;12.50;99.90;;;;;;5015353;28;20041;-74
2022/11/02 05:22:44;;;;;;;9.68;2.35;;;12.50;99.90;;;;;;5013827;28;20497;-73
2022/11/02 05:25:11;;;;;;;12.18;3.05;;;12.40;99.90;;;;;;5013971;28;20038;-74
2022/11/02 05:27:37;;;;;;;10.25;2.30;;;12.40;99.90;;;;;;4996448;28;20055;-74
2022/11/02 05:30:04;;;;;;;9.15;2.33;;;12.40;99.90;;;;;;5027201;28;20042;-73
2022/11/02 05:32:29;;;;;;;10.70;2.20;;;12.30;99.90;;;;;;5011986;28;20051;-73
2022/11/02 05:34:55;;;;;;;11.40;2.05;;;12.30;99.90;;;;;;5010973;28;20049;-75
2022/11/02 05:37:21;;;;;;;11.70;2.13;;;12.20;99.90;;;;;;5005104;28;20049;-73
2022/11/02 05:39:46;;;;;;;11.88;2.35;;;12.30;99.90;;;;;;5007535;28;20080;-73
2022/11/02 05:42:13;;;;;;;14.88;2.30;;;12.20;99.90;;;;;;4989964;28;20095;-72
2022/11/02 05:44:39;;;;;;;20.45;2.75;;;12.20;99.90;;;;;;5009563;28;20045;-71
2022/11/02 05:47:05;;;;;;;16.30;2.95;;;12.10;99.90;;;;;;5008781;28;20924;-73
2022/11/02 05:49:31;;;;;;;9.43;1.88;;;12.10;99.90;;;;;;5038073;28;20046;-74
2022/11/02 05:51:56;;;;;;;7.72;1.85;;;12.10;99.90;;;;;;4993195;28;20049;-74
2022/11/02 05:54:23;;;;;;;11.90;2.17;;;12.10;99.90;;;;;;5007848;28;20681;-72
2022/11/02 05:56:48;;;;;;;18.80;3.45;;;12.10;99.90;;;;;;5009180;28;20107;-72
2022/11/02 05:59:14;;;;;;;8.77;2.47;;;12.00;99.90;;;;;;4990637;28;20061;-74
2022/11/02 06:01:40;;;;;;;12.75;2.50;;;12.00;99.90;;;;;;4989086;28;20139;-75
2022/11/02 06:04:06;;;;;;;11.70;2.13;;;12.00;99.90;;;;;;5008656;28;20053;-74
2022/11/02 06:06:32;;;;;;;12.02;2.58;;;12.00;99.90;;;;;;5007055;28;20401;-74
2022/11/02 06:08:57;;;;;;;11.05;2.85;;;11.90;99.90;;;;;;4989104;28;20140;-74
2022/11/02 06:11:23;;;;;;;16.42;2.58;;;12.00;99.90;;;;;;5008666;28;20045;-74
2022/11/02 06:13:49;;;;;;;13.75;2.42;;;12.00;99.90;;;;;;5003138;28;20395;-70
2022/11/02 06:16:15;;;;;;;8.77;1.67;;;12.00;99.90;;;;;;5012445;28;20116;-70
2022/11/02 06:18:41;;;;;;;11.10;2.13;;;11.90;99.90;;;;;;4990265;28;20057;-70
2022/11/02 06:21:09;;;;;;;9.43;2.10;;;11.90;99.90;;;;;;4975710;28;20050;-70
2022/11/02 06:23:35;;;;;;;10.98;2.22;;;11.90;99.90;;;;;;5008534;28;20046;-70
2022/11/02 06:26:01;;;;;;;10.32;1.77;;;11.80;99.90;;;;;;5004497;28;20042;-70
2022/11/02 06:28:27;;;;;;;16.98;2.55;;;11.90;99.90;;;;;;5008861;28;20053;-69
2022/11/02 06:30:53;;;;;;;19.88;2.83;;;11.90;99.90;;;;;;4996495;28;20045;-68
2022/11/02 06:33:19;;;;;;;11.80;2.58;;;11.90;99.90;;;;;;5011135;28;20056;-69
2022/11/02 06:35:46;;;;;;;15.73;3.13;;;11.90;99.90;;;;;;5011398;28;20050;-69
2022/11/02 06:38:11;;;;;;;12.93;2.42;;;11.90;99.90;;;;;;5011313;28;20054;-68
2022/11/02 06:40:37;;;;;;;15.35;2.63;;;11.80;99.90;;;;;;5010407;28;20052;-69
2022/11/02 06:43:03;;;;;;;17.30;2.83;;;11.90;99.90;;;;;;4995831;28;20124;-69
2022/11/02 06:45:29;;;;;;;8.25;1.95;;;11.80;99.90;;;;;;5010218;28;20045;-74
2022/11/02 06:47:55;;;;;;;13.32;2.45;;;11.80;99.90;;;;;;5010516;28;20049;-73
2022/11/02 06:50:23;;;;;;;12.63;2.40;;;11.80;99.90;;;;;;5012192;28;20061;-71
2022/11/02 06:52:49;;;;;;;15.13;2.55;;;11.80;99.90;;;;;;4979264;28;20046;-74
2022/11/02 06:55:15;;;;;;;10.20;1.98;;;11.80;99.90;;;;;;5010976;28;20046;-74
2022/11/02 06:57:41;;;;;;;13.02;2.35;;;11.80;99.90;;;;;;5015109;28;20144;-74
2022/11/02 07:00:11;;;;;;;14.52;2.53;;;11.80;99.90;;;;;;4996796;28;20104;-75
2022/11/02 07:02:38;;;;;;;11.45;2.00;;;11.80;99.90;;;;;;5011462;28;20050;-73
2022/11/02 07:05:04;;;;;;;11.95;2.28;;;11.90;99.90;;;;;;5011830;28;20053;-73
2022/11/02 07:07:30;;;;;;;15.68;2.30;;;11.90;99.90;;;;;;4992964;28;20137;-74
2022/11/02 07:09:55;;;;;;;13.52;2.60;;;11.90;99.90;;;;;;5012279;28;20511;-72
2022/11/02 07:12:21;;;;;;;15.35;2.55;;;11.90;99.90;;;;;;5024256;28;20535;-74
2022/11/02 07:14:47;;;;;;;14.07;2.50;;;11.80;99.90;;;;;;5011118;28;20107;-73
2022/11/02 07:17:12;;;;;;;12.80;2.88;;;11.90;99.90;;;;;;5009619;28;20430;-74
2022/11/02 07:19:38;;;;;;;13.00;2.30;;;11.90;99.90;;;;;;5010701;28;20049;-73
2022/11/02 07:22:04;;;;;;;11.18;2.65;;;11.90;99.90;;;;;;4993890;28;20464;-73
2022/11/02 07:24:30;;;;;;;9.38;2.58;;;12.00;99.90;;;;;;4992184;28;20049;-73
2022/11/02 07:26:56;;;;;;;10.55;1.85;;;11.90;99.90;;;;;;5043493;28;20045;-74
2022/11/02 07:29:22;;;;;;;11.73;2.22;;;12.00;99.90;;;;;;5011122;28;20041;-73
2022/11/02 07:31:47;;;;;;;12.38;2.28;;;12.00;99.90;;;;;;5012003;28;20463;-74
2022/11/02 07:34:13;;;;;;;6.60;1.85;;;12.00;99.90;;;;;;5009184;28;20058;-75
2022/11/02 07:36:39;;;;;;;10.85;2.20;;;12.00;99.90;;;;;;5008801;28;20081;-72
2022/11/02 07:39:06;;;;;;;12.23;2.95;;;12.10;99.90;;;;;;4989229;28;20049;-73
2022/11/02 07:41:32;;;;;;;10.98;3.33;;;12.10;99.90;;;;;;5011276;28;20160;-72
2022/11/02 07:43:58;;;;;;;13.90;3.10;;;12.20;99.90;;;;;;5021597;28;20045;-73
2022/11/02 07:46:24;;;;;;;18.23;3.33;;;12.20;99.90;;;;;;5019749;28;20464;-72
2022/11/02 07:48:50;;;;;;;12.50;2.38;;;12.30;99.90;;;;;;4996179;28;20547;-73
2022/11/02 07:51:16;;;;;;;8.85;2.53;;;12.20;99.90;;;;;;4994766;28;20056;-74
2022/11/02 07:53:46;;;;;;;12.82;2.88;;;12.20;99.90;;;;;;4994905;28;20072;-72
2022/11/02 07:56:11;;;;;;;12.90;2.78;;;12.20;99.90;;;;;;4995844;28;20412;-72
2022/11/02 07:58:37;;;;;;;12.88;2.65;;;12.20;99.90;;;;;;5012280;28;20065;-73
2022/11/02 08:01:03;;;;;;;12.02;2.92;;;12.30;99.90;;;;;;5009830;28;20046;-73
2022/11/02 08:03:29;;;;;;;12.23;2.40;;;12.30;99.90;;;;;;5011514;28;20430;-73
2022/11/02 08:06:01;;;;;;;12.95;3.17;;;12.30;99.90;;;;;;4993935;28;20038;-73
2022/11/02 08:08:27;;;;;;;13.60;2.78;;;12.30;99.90;;;;;;4987570;28;20050;-73
2022/11/02 08:10:53;;;;;;;11.57;2.60;;;12.30;99.90;;;;;;5010689;28;20052;-74
2022/11/02 08:13:20;;;;;;;13.43;2.45;;;12.30;99.90;;;;;;5011032;28;20502;-73
2022/11/02 08:15:50;;;;;;;12.43;2.50;;;12.40;99.90;;;;;;4991617;28;20530;-74
2022/11/02 08:18:17;;;;;;;14.38;2.88;;;12.40;99.90;;;;;;5010867;28;20331;-73
2022/11/02 08:20:44;;;;;;;10.88;2.78;;;12.50;99.90;;;;;;5007907;28;20396;-74
2022/11/02 08:23:10;;;;;;;11.68;3.08;;;12.50;99.90;;;;;;5010941;28;20471;-72
2022/11/02 08:25:36;;;;;;;18.13;3.17;;;12.40;99.90;;;;;;5009994;28;20077;-73
2022/11/02 08:28:02;;;;;;;13.90;2.65;;;12.50;99.90;;;;;;5010867;28;20672;-74
2022/11/02 08:30:29;;;;;;;13.50;3.15;;;12.50;99.90;;;;;;5009844;28;20729;-74
2022/11/02 08:32:55;;;;;;;14.57;2.65;;;12.60;99.90;;;;;;5026541;28;20436;-74
2022/11/02 08:35:20;;;;;;;13.85;2.72;;;12.60;99.90;;;;;;4990620;28;20109;-73
2022/11/02 08:37:58;;;;;;;16.40;2.50;;;12.60;99.90;;;;;;5008249;28;20058;-73
2022/11/02 08:40:33;;;;;;;9.57;2.30;;;12.60;99.90;;;;;;5007461;28;20061;-74
2022/11/02 08:43:03;;;;;;;14.90;2.63;;;12.70;99.90;;;;;;4990675;28;20080;-73
2022/11/02 08:45:29;;;;;;;9.52;2.33;;;12.80;99.90;;;;;;4994420;28;20050;-74
2022/11/02 08:48:37;;;;;;;15.45;2.33;;;12.90;99.90;;;;;;5009776;28;20100;-73
2022/11/02 08:51:32;;;;;;;9.32;2.47;;;13.00;99.90;;;;;;4995636;28;20365;-73
2022/11/02 08:54:46;;;;;;;11.27;2.80;;;13.00;99.90;;;;;;5025910;28;20042;-74
2022/11/02 08:57:32;;;;;;;13.88;2.22;;;13.10;99.90;;;;;;4995098;28;20096;-74
2022/11/02 08:59:58;;;;;;;21.88;2.65;;;13.20;99.90;;;;;;4989314;28;20093;-72
2022/11/02 09:02:26;;;;;;;13.68;2.67;;;13.10;99.90;;;;;;5041417;28;20285;-75
2022/11/02 09:04:52;;;;;;;9.68;2.05;;;13.10;99.90;;;;;;5026333;28;20081;-73
2022/11/02 09:07:18;;;;;;;15.38;2.78;;;13.10;99.90;;;;;;5008480;28;20070;-73
2022/11/02 09:09:44;;;;;;;8.93;2.58;;;13.10;99.90;;;;;;5025948;28;20443;-72
2022/11/02 09:12:10;;;;;;;8.80;1.77;;;13.20;99.90;;;;;;5006090;28;20057;-74
2022/11/02 09:14:36;;;;;;;12.23;2.50;;;13.20;99.90;;;;;;5006367;28;20483;-73
2022/11/02 09:17:01;;;;;;;14.00;2.65;;;13.10;99.90;;;;;;4999999;28;20050;-72
2022/11/02 09:19:27;;;;;;;8.38;2.20;;;13.10;99.90;;;;;;5010559;28;20080;-73
2022/11/02 09:21:53;;;;;;;11.57;2.50;;;13.10;99.90;;;;;;5019977;28;20053;-73
2022/11/02 09:24:19;;;;;;;12.70;2.70;;;13.10;99.90;;;;;;5009764;28;20057;-74
2022/11/02 09:26:45;;;;;;;14.45;3.38;;;13.20;99.90;;;;;;4976738;28;20420;-74
2022/11/02 09:29:10;;;;;;;8.80;1.98;;;13.10;99.90;;;;;;4990832;28;20050;-73
2022/11/02 09:31:36;;;;;;;11.55;2.60;;;13.20;99.90;;;;;;5012813;28;20064;-73
2022/11/02 09:34:02;;;;;;;11.63;2.17;;;13.10;99.90;;;;;;4992125;28;20049;-73
2022/11/02 09:36:28;;;;;;;10.25;2.00;;;13.20;99.90;;;;;;5008852;28;20050;-75
2022/11/02 09:38:53;;;;;;;11.52;2.70;;;13.20;99.90;;;;;;4976497;28;20058;-73
2022/11/02 09:41:42;;;;;;;14.30;2.40;;;13.20;99.90;;;;;;5007392;28;20572;-73
2022/11/02 09:44:24;;;;;;;7.45;1.85;;;13.30;99.90;;;;;;5009195;28;20046;-73
2022/11/02 09:46:50;;;;;;;14.38;2.53;;;13.40;99.70;;;;;;4989205;28;20042;-74
2022/11/02 09:49:19;;;;;;;7.68;1.83;;;13.40;99.20;;;;;;5020303;28;20061;-69
2022/11/02 09:51:53;;;;;;;11.52;2.42;;;13.60;98.60;;;;;;5022845;28;20162;-70
2022/11/02 09:54:39;;;;;;;16.75;2.60;;;13.60;98.50;;;;;;5005820;28;20054;-70
2022/11/02 09:57:20;;;;;;;12.80;2.65;;;13.70;97.40;;;;;;4993995;28;20073;-70
2022/11/02 09:59:46;;;;;;;9.52;2.00;;;13.90;96.30;;;;;;5007225;28;20054;-69
2022/11/02 10:02:20;;;;;;;10.98;1.92;;;13.90;96.10;;;;;;5008381;28;20057;-70
2022/11/02 10:05:11;;;;;;;8.43;2.45;;;13.80;96.50;;;;;;5008682;28;20366;-70
2022/11/02 10:08:07;;;;;;;15.90;2.13;;;14.00;96.50;;;;;;4990773;28;20103;-70
2022/11/02 10:10:52;;;;;;;13.95;2.42;;;13.90;96.10;;;;;;5005203;28;20096;-69
2022/11/02 10:13:27;;;;;;;11.50;2.38;;;13.80;95.80;;;;;;5007368;28;20045;-69
2022/11/02 10:16:02;;;;;;;11.13;2.70;;;14.00;95.40;;;;;;5002653;28;20082;-70
2022/11/02 10:18:29;;;;;;;9.20;2.03;;;14.10;94.90;;;;;;5002561;28;20467;-70
2022/11/02 10:21:09;;;;;;;11.80;1.80;;;14.10;94.60;;;;;;5008061;28;20078;-70
2022/11/02 10:23:40;;;;;;;11.02;1.90;;;14.20;93.60;;;;;;5006777;28;20057;-69
2022/11/02 10:26:05;;;;;;;9.40;1.70;;;14.20;93.70;;;;;;5007930;28;20048;-70
2022/11/02 10:28:50;;;;;;;11.32;1.90;;;14.10;93.10;;;;;;5023770;28;20046;-68
2022/11/02 10:31:29;;;;;;;8.68;2.05;;;14.10;93.20;;;;;;5008776;28;20046;-69
2022/11/02 10:33:55;;;;;;;8.30;1.85;;;14.20;93.40;;;;;;5020982;28;20054;-69
2022/11/02 10:36:38;;;;;;;9.05;2.00;;;14.40;93.50;;;;;;5022734;28;20132;-68
2022/11/02 10:39:13;;;;;;;11.77;2.97;;;14.80;92.50;;;;;;5033540;28;20046;-69
2022/11/02 10:41:45;;;;;;;10.93;2.42;;;14.70;92.30;;;;;;5023158;28;20116;-74
2022/11/02 10:44:16;;;;;;;10.25;2.15;;;14.60;92.00;;;;;;5008275;28;20073;-69
2022/11/02 10:46:48;;;;;;;8.25;1.77;;;14.50;92.00;;;;;;5021624;28;20430;-70
2022/11/02 10:49:23;;;;;;;6.97;1.92;;;14.40;91.50;;;;;;4992165;28;20115;-69
2022/11/02 10:51:49;;;;;;;8.50;1.83;;;14.30;91.50;;;;;;5007406;28;20045;-70
2022/11/02 10:54:14;;;;;;;8.63;1.88;;;14.30;91.80;;;;;;5002870;28;20164;-71
2022/11/02 10:56:41;;;;;;;9.38;2.33;;;15.20;90.90;;;;;;5008328;28;20535;-71
2022/11/02 10:59:13;;;;;;;9.50;1.85;;;15.50;90.00;;;;;;5007451;28;20161;-70
2022/11/02 11:02:02;;;;;;;9.13;1.73;;;15.00;90.30;;;;;;5009664;28;20038;-70
2022/11/02 11:04:28;;;;;;;7.20;1.83;;;14.90;89.70;;;;;;5007516;28;20073;-70
2022/11/02 11:06:55;;;;;;;10.40;1.48;;;15.20;89.50;;;;;;5007518;28;20057;-69
2022/11/02 11:09:21;;;;;;;8.88;2.42;;;15.40;86.00;;;;;;4990553;28;20057;-69
2022/11/02 11:11:58;;;;;;;6.07;1.45;;;15.30;85.90;;;;;;5007333;28;20112;-69
2022/11/02 11:14:25;;;;;;;5.97;1.52;;;15.50;83.70;;;;;;4974948;28;20519;-71
2022/11/02 11:17:00;;;;;;;9.20;1.85;;;15.90;80.80;;;;;;4973896;28;20539;-70
2022/11/02 11:19:39;;;;;;;9.50;1.63;;;15.70;81.40;;;;;;4994621;28;20041;-71
2022/11/02 11:22:28;;;;;;;5.93;1.30;;;15.70;80.60;;;;;;5005761;28;20073;-69
2022/11/02 11:25:18;;;;;;;7.88;2.03;;;15.70;79.20;;;;;;4994779;28;20187;-71
2022/11/02 11:27:48;;;;;;;10.73;1.75;;;15.60;80.20;;;;;;5005189;28;20042;-70
2022/11/02 11:30:36;;;;;;;4.85;1.42;;;15.70;80.70;;;;;;4978789;28;20423;-71
2022/11/02 11:33:05;;;;;;;6.53;1.52;;;15.80;81.10;;;;;;5009750;28;20050;-70
2022/11/02 11:35:32;;;;;;;9.65;1.80;;;16.20;80.10;;;;;;5010335;28;20061;-68
2022/11/02 11:38:13;;;;;;;18.67;2.10;;;15.50;80.00;;;;;;4977688;28;20676;-69
2022/11/02 11:40:43;;;;;;;7.40;1.33;;;15.50;80.00;;;;;;5010995;28;20361;-69
2022/11/02 11:43:13;;;;;;;9.18;1.60;;;16.20;78.80;;;;;;5010159;28;20046;-71
2022/11/02 11:45:39;;;;;;;8.32;2.65;;;16.50;77.40;;;;;;5005592;28;20108;-69
2022/11/02 11:48:41;;;;;;;6.15;1.77;;;15.90;79.10;;;;;;4977767;28;20716;-70
2022/11/02 11:51:34;;;;;;;7.05;1.45;;;15.60;79.70;;;;;;5015669;28;20052;-69
2022/11/02 11:54:18;;;;;;;10.25;1.67;;;15.10;81.60;;;;;;5009876;28;20108;-70
2022/11/02 11:56:45;;;;;;;5.80;1.50;;;14.70;83.10;;;;;;5024494;28;20463;-70
2022/11/02 11:59:28;;;;;;;5.72;1.63;;;14.50;83.30;;;;;;4994019;28;20049;-69
2022/11/02 12:01:59;;;;;;;6.50;1.55;;;14.50;84.80;;;;;;5010613;28;20107;-69
2022/11/02 12:04:29;;;;;;;10.02;1.90;;;14.50;85.10;;;;;;4993964;28;20104;-70
2022/11/02 12:07:44;;;;;;;7.75;1.45;;;14.70;84.40;;;;;;4991120;28;20471;-70
2022/11/02 12:10:39;;;;;;;11.25;1.80;;;15.00;83.80;;;;;;5004202;28;20045;-69
2022/11/02 12:13:18;;;;;;;9.70;1.52;;;15.50;81.80;;;;;;5001052;28;20488;-71
2022/11/02 12:16:03;;;;;;;5.97;1.48;;;15.90;80.50;;;;;;5004795;28;20709;-70
2022/11/02 12:19:06;;;;;;;10.13;1.80;;;16.60;79.00;;;;;;4983764;28;20375;-69
2022/11/02 12:21:38;;;;;;;7.82;1.58;;;16.70;76.90;;;;;;4984163;28;20049;-70
2022/11/02 12:24:28;;;;;;;6.80;1.83;;;17.00;76.00;;;;;;5000659;28;20438;-73
2022/11/02 12:27:14;;;;;;;3.30;1.27;;;17.30;75.00;;;;;;5008429;28;20135;-73
2022/11/02 12:30:03;;;;;;;11.68;2.03;;;17.60;74.00;;;;;;5025176;28;20387;-72
2022/11/02 12:32:54;;;;;;;4.15;1.25;;;18.50;73.00;;;;;;5003411;28;20491;-74
2022/11/02 12:35:41;;;;;;;8.68;1.40;;;18.20;69.80;;;;;;5008572;28;20100;-75
2022/11/02 12:38:29;;;;;;;4.75;1.42;;;18.40;71.60;;;;;;5008765;28;20543;-74
2022/11/02 12:41:00;;;;;;;;;;;18.40;70.40;;;;;;5012193;28;20053;-72
2022/11/02 12:43:42;;;;;;;7.40;1.55;;;18.10;68.80;;;;;;5008642;28;19979;-73
2022/11/02 12:46:08;;;;;;;11.43;1.85;;;17.60;68.50;;;;;;5026468;28;20046;-74
2022/11/02 12:48:40;;;;;;;7.65;1.40;;;17.10;67.80;;;;;;5011259;28;20060;-74
2022/11/02 12:51:15;;;;;;;4.40;1.08;;;16.20;69.20;;;;;;5006540;28;20116;-76
2022/11/02 12:53:47;;;;;;;9.15;1.55;;;15.60;71.10;;;;;;4977681;28;20046;-72
2022/11/02 12:56:24;;;;;;;8.90;1.50;;;15.20;73.00;;;;;;5021766;28;20053;-73
2022/11/02 12:58:56;;;;;;;8.65;1.70;;;15.20;74.60;;;;;;5010156;28;20046;-73
2022/11/02 13:01:30;;;;;;;9.88;1.70;;;15.00;75.80;;;;;;5011480;28;20071;-73
2022/11/02 13:04:02;;;;;;;6.63;1.80;;;15.00;75.80;;;;;;5008884;28;20072;-73
2022/11/02 13:06:37;;;;;;;7.38;1.60;;;14.80;76.70;;;;;;5008601;28;20471;-73
2022/11/02 13:09:31;;;;;;;8.10;1.83;;;15.10;76.60;;;;;;5010329;28;20046;-75
2022/11/02 13:12:13;;;;;;;8.85;1.50;;;15.40;75.60;;;;;;5011054;28;20100;-74
2022/11/02 13:14:41;;;;;;;5.85;1.40;;;15.20;75.00;;;;;;4992358;28;20046;-74
2022/11/02 13:17:30;;;;;;;8.25;1.80;;;15.00;75.70;;;;;;5013868;28;20042;-74